Time;durP1;ratioP1;P1;durP2;ratioP2;P2;SDS_P1;SDS_P2;PMS_P1;PMS_P2;Temp;Humidity;BMP_temperature;BMP_pressure;BME280_temperature;BME280_humidity;BME280_pressure;Samples;Min_cycle;Max_cycle;Signal;HPM_P1;HPM_P2
2020/12/01 00:00:27;;;;;;;37.45;19.20;;;5.30;99.30;;;;;;5031673;28;20029;-67
2020/12/01 00:02:54;;;;;;;40.95;20.30;;;5.30;99.30;;;;;;5031384;28;20022;-69
2020/12/01 00:05:22;;;;;;;38.40;18.33;;;5.20;99.40;;;;;;5032915;28;20478;-67
2020/12/01 00:07:47;;;;;;;;;;;5.30;99.30;;;;;;5030913;28;20048;-66
2020/12/01 00:10:15;;;;;;;37.08;19.45;;;5.30;99.40;;;;;;5031461;28;19909;-67
2020/12/01 00:12:41;;;;;;;;;;;5.20;99.30;;;;;;5032036;28;20187;-67
2020/12/01 00:15:09;;;;;;;38.17;19.48;;;5.20;99.40;;;;;;5029717;28;20007;-68
2020/12/01 00:17:34;;;;;;;38.87;18.73;;;5.30;99.40;;;;;;5035313;28;20051;-68
2020/12/01 00:20:00;;;;;;;36.22;18.38;;;5.20;99.40;;;;;;5036801;28;20029;-69
2020/12/01 00:22:25;;;;;;;37.75;18.75;;;5.20;99.40;;;;;;5035159;28;20038;-68
2020/12/01 00:24:51;;;;;;;32.78;18.42;;;5.30;99.40;;;;;;5034982;28;20033;-68
2020/12/01 00:27:17;;;;;;;36.85;18.67;;;5.30;99.40;;;;;;5035223;28;20029;-67
2020/12/01 00:29:42;;;;;;;38.30;19.35;;;5.40;99.50;;;;;;5034917;28;20438;-68
2020/12/01 00:32:08;;;;;;;36.83;19.67;;;5.40;99.50;;;;;;5036665;28;20099;-67
2020/12/01 00:34:33;;;;;;;35.90;19.77;;;5.40;99.50;;;;;;5034694;28;20042;-68
2020/12/01 00:37:03;;;;;;;36.05;19.60;;;5.30;99.50;;;;;;5034829;28;20033;-69
2020/12/01 00:39:28;;;;;;;35.45;18.00;;;5.30;99.50;;;;;;5035066;28;20037;-67
2020/12/01 00:41:54;;;;;;;34.40;19.27;;;5.30;99.60;;;;;;5034895;28;20044;-68
2020/12/01 00:44:19;;;;;;;34.70;18.20;;;5.40;99.60;;;;;;5036168;28;20034;-68
2020/12/01 00:46:45;;;;;;;34.25;17.67;;;5.40;99.90;;;;;;5034691;28;20042;-69
2020/12/01 00:49:11;;;;;;;34.30;18.67;;;5.40;99.70;;;;;;5034726;28;20030;-70
2020/12/01 00:51:36;;;;;;;34.55;18.48;;;5.40;99.60;;;;;;5034438;28;20121;-69
2020/12/01 00:54:02;;;;;;;37.88;19.15;;;5.40;99.60;;;;;;5034432;28;20120;-68
2020/12/01 00:56:28;;;;;;;29.98;17.73;;;5.40;99.60;;;;;;5036154;28;20374;-67
2020/12/01 00:58:54;;;;;;;33.08;17.95;;;5.40;99.70;;;;;;5034268;28;20348;-67
2020/12/01 01:01:23;;;;;;;33.25;17.75;;;5.40;99.90;;;;;;5034360;28;20065;-68
2020/12/01 01:03:48;;;;;;;32.92;17.13;;;5.50;99.90;;;;;;5034396;28;20478;-67
2020/12/01 01:06:14;;;;;;;29.90;18.13;;;5.50;99.90;;;;;;5034330;28;20084;-67
2020/12/01 01:08:40;;;;;;;32.05;17.90;;;5.40;99.90;;;;;;5033363;28;20347;-67
2020/12/01 01:11:07;;;;;;;37.60;18.80;;;5.40;99.90;;;;;;5035768;28;20111;-68
2020/12/01 01:13:33;;;;;;;31.90;16.90;;;5.50;99.90;;;;;;5033885;28;20025;-69
2020/12/01 01:16:00;;;;;;;33.30;18.35;;;5.50;99.90;;;;;;5034060;28;20147;-68
2020/12/01 01:18:26;;;;;;;32.57;17.83;;;5.50;99.90;;;;;;5034173;28;20038;-68
2020/12/01 01:20:52;;;;;;;32.78;18.25;;;5.50;99.90;;;;;;5034019;28;20259;-67
2020/12/01 01:23:18;;;;;;;36.58;18.85;;;5.40;99.90;;;;;;5035770;28;20099;-67
2020/12/01 01:25:44;;;;;;;29.65;16.80;;;5.40;99.90;;;;;;5034144;28;20363;-69
2020/12/01 01:28:09;;;;;;;31.23;17.10;;;5.50;99.90;;;;;;5033568;28;20033;-66
2020/12/01 01:30:38;;;;;;;34.00;18.35;;;5.60;99.90;;;;;;5033855;28;20048;-68
2020/12/01 01:33:05;;;;;;;32.05;17.83;;;5.60;99.90;;;;;;5033841;28;20044;-68
2020/12/01 01:35:34;;;;;;;27.92;16.60;;;5.50;99.90;;;;;;5035157;28;20343;-68
2020/12/01 01:38:02;;;;;;;29.05;16.15;;;5.50;99.90;;;;;;5034073;28;20033;-68
2020/12/01 01:40:29;;;;;;;31.77;17.05;;;5.60;99.90;;;;;;5033927;28;20034;-69
2020/12/01 01:42:56;;;;;;;30.23;16.58;;;5.50;99.80;;;;;;5033665;28;20073;-68
2020/12/01 01:45:36;;;;;;;30.95;16.67;;;5.50;99.80;;;;;;5033380;28;20045;-68
2020/12/01 01:48:03;;;;;;;28.55;16.35;;;5.60;99.80;;;;;;5033401;28;20072;-68
2020/12/01 01:50:29;;;;;;;32.03;16.70;;;5.50;99.80;;;;;;5035102;28;20028;-70
2020/12/01 01:52:55;;;;;;;30.73;16.13;;;5.60;99.90;;;;;;5033390;28;20111;-68
2020/12/01 01:55:26;;;;;;;29.13;15.80;;;5.50;99.80;;;;;;5033346;28;20038;-68
2020/12/01 01:57:56;;;;;;;27.67;14.98;;;5.60;99.70;;;;;;5032614;28;20037;-67
2020/12/01 02:00:56;;;;;;;26.17;15.65;;;5.50;99.60;;;;;;5033391;28;20067;-68
2020/12/01 02:03:41;;;;;;;23.55;14.80;;;5.50;99.70;;;;;;5033271;28;20038;-68
2020/12/01 02:06:28;;;;;;;27.67;15.20;;;5.60;99.80;;;;;;5033270;28;20033;-69
2020/12/01 02:08:59;;;;;;;27.67;15.63;;;5.60;99.70;;;;;;5032911;28;20041;-68
2020/12/01 02:11:28;;;;;;;29.08;15.63;;;5.60;99.70;;;;;;5034549;28;20109;-68
2020/12/01 02:14:00;;;;;;;28.25;15.20;;;5.50;99.60;;;;;;5031988;28;20386;-69
2020/12/01 02:16:25;;;;;;;25.98;14.18;;;5.60;99.90;;;;;;5033093;28;20533;-69
2020/12/01 02:18:52;;;;;;;27.52;15.73;;;5.60;99.70;;;;;;5032842;28;20034;-69
2020/12/01 02:21:32;;;;;;;26.38;15.20;;;5.60;99.70;;;;;;5033071;28;20033;-69
2020/12/01 02:24:00;;;;;;;27.15;15.77;;;5.60;99.60;;;;;;5032833;28;20029;-68
2020/12/01 02:26:25;;;;;;;;;;;5.60;99.60;;;;;;5034744;28;20025;-68
2020/12/01 02:28:52;;;;;;;25.85;13.95;;;5.60;99.70;;;;;;5032846;28;19908;-67
2020/12/01 02:31:18;;;;;;;22.15;13.70;;;5.70;99.60;;;;;;5032757;28;20072;-69
2020/12/01 02:33:44;;;;;;;27.33;14.77;;;5.60;99.60;;;;;;5032663;28;20524;-68
2020/12/01 02:36:09;;;;;;;25.65;14.48;;;5.70;99.60;;;;;;5032643;28;20033;-69
2020/12/01 02:38:35;;;;;;;28.83;15.25;;;5.70;99.60;;;;;;5031921;28;20340;-69
2020/12/01 02:41:01;;;;;;;25.45;13.85;;;5.70;99.60;;;;;;5033697;28;20018;-68
2020/12/01 02:43:27;;;;;;;23.58;13.85;;;5.80;99.50;;;;;;5032508;28;20431;-68
2020/12/01 02:45:53;;;;;;;27.35;15.80;;;5.80;99.50;;;;;;5032574;28;20045;-68
2020/12/01 02:48:18;;;;;;;23.27;13.40;;;5.80;99.50;;;;;;5032736;28;20045;-68
2020/12/01 02:50:44;;;;;;;26.23;14.60;;;5.90;99.50;;;;;;5032290;28;20037;-69
2020/12/01 02:53:10;;;;;;;21.63;12.68;;;5.90;99.50;;;;;;5033554;28;20374;-69
2020/12/01 02:55:35;;;;;;;21.23;12.82;;;5.90;99.40;;;;;;5032014;28;20038;-69
2020/12/01 02:58:01;;;;;;;23.92;12.98;;;5.90;99.30;;;;;;5032408;28;20026;-68
2020/12/01 03:00:27;;;;;;;23.08;13.05;;;5.90;99.40;;;;;;5031124;28;20040;-69
2020/12/01 03:02:52;;;;;;;23.15;12.85;;;5.90;99.50;;;;;;5032126;28;20120;-70
2020/12/01 03:05:18;;;;;;;24.08;13.35;;;5.90;99.40;;;;;;5016351;28;20044;-69
2020/12/01 03:07:43;;;;;;;21.35;12.23;;;5.90;99.50;;;;;;5032191;28;20475;-69
2020/12/01 03:10:09;;;;;;;22.98;13.43;;;6.00;99.50;;;;;;5032129;28;20072;-69
2020/12/01 03:12:35;;;;;;;21.65;12.68;;;6.00;99.40;;;;;;5032102;28;20474;-68
2020/12/01 03:15:01;;;;;;;21.02;12.68;;;6.00;99.20;;;;;;5032003;28;20049;-69
2020/12/01 03:17:27;;;;;;;20.92;12.82;;;6.00;99.30;;;;;;5033496;28;20017;-68
2020/12/01 03:19:53;;;;;;;21.48;11.75;;;6.00;99.30;;;;;;5031863;28;20383;-69
2020/12/01 03:22:18;;;;;;;21.30;12.25;;;6.00;99.30;;;;;;5031937;28;20033;-68
2020/12/01 03:24:44;;;;;;;22.63;13.02;;;6.00;99.30;;;;;;5031925;28;20073;-69
2020/12/01 03:27:09;;;;;;;23.20;13.32;;;6.10;99.30;;;;;;5031748;28;20086;-69
2020/12/01 03:29:35;;;;;;;22.67;12.65;;;6.00;99.20;;;;;;5031823;28;20029;-68
2020/12/01 03:32:00;;;;;;;21.45;12.10;;;6.00;99.30;;;;;;5033460;28;20393;-68
2020/12/01 03:34:26;;;;;;;21.38;12.45;;;6.10;99.20;;;;;;5031779;28;20045;-70
2020/12/01 03:36:52;;;;;;;21.75;12.90;;;6.00;99.10;;;;;;5031998;28;20076;-69
2020/12/01 03:39:17;;;;;;;21.90;12.38;;;6.10;99.10;;;;;;5031976;28;20122;-68
2020/12/01 03:41:43;;;;;;;21.42;12.80;;;6.10;99.10;;;;;;5031523;28;20021;-69
2020/12/01 03:44:08;;;;;;;23.05;13.82;;;6.00;99.00;;;;;;5033432;28;20095;-68
2020/12/01 03:46:34;;;;;;;21.52;12.48;;;6.00;99.20;;;;;;5031718;28;20536;-69
2020/12/01 03:49:00;;;;;;;20.98;12.23;;;6.00;99.30;;;;;;5031410;28;20075;-70
2020/12/01 03:51:26;;;;;;;24.63;12.75;;;6.10;99.30;;;;;;5034000;28;20047;-69
2020/12/01 03:53:52;;;;;;;24.13;13.48;;;6.00;99.20;;;;;;5035633;28;20425;-69
2020/12/01 03:56:19;;;;;;;20.38;12.05;;;6.00;99.30;;;;;;5037043;28;20021;-69
2020/12/01 03:58:45;;;;;;;22.83;13.18;;;6.00;99.30;;;;;;5035431;28;20042;-69
2020/12/01 04:01:10;;;;;;;23.65;12.95;;;6.00;99.20;;;;;;5035265;28;20466;-68
2020/12/01 04:03:36;;;;;;;19.40;11.80;;;6.10;99.10;;;;;;5035488;28;20021;-68
2020/12/01 04:06:05;;;;;;;20.70;12.80;;;6.00;99.30;;;;;;5035477;28;20435;-67
2020/12/01 04:08:30;;;;;;;23.55;12.48;;;6.10;99.30;;;;;;5036796;28;20033;-68
2020/12/01 04:10:56;;;;;;;19.67;11.65;;;6.10;99.20;;;;;;5034472;28;20033;-68
2020/12/01 04:13:22;;;;;;;20.95;11.77;;;6.10;99.20;;;;;;5035368;28;20137;-68
2020/12/01 04:15:47;;;;;;;20.63;12.25;;;6.20;99.20;;;;;;5035224;28;20467;-68
2020/12/01 04:18:13;;;;;;;20.48;12.13;;;6.20;99.10;;;;;;5035144;28;20068;-69
2020/12/01 04:20:40;;;;;;;20.25;12.10;;;6.30;99.20;;;;;;5035461;28;20043;-69
2020/12/01 04:23:06;;;;;;;24.35;13.13;;;6.20;99.10;;;;;;5036687;28;20021;-69
2020/12/01 04:25:32;;;;;;;20.40;12.07;;;6.20;99.20;;;;;;5035358;28;20041;-68
2020/12/01 04:27:58;;;;;;;23.52;12.70;;;6.20;99.20;;;;;;5035169;28;20365;-68
2020/12/01 04:30:25;;;;;;;24.75;12.07;;;6.20;99.30;;;;;;5034890;28;20026;-69
2020/12/01 04:32:52;;;;;;;24.40;13.52;;;6.20;99.30;;;;;;5034778;28;20431;-67
2020/12/01 04:35:20;;;;;;;23.80;13.57;;;6.10;99.20;;;;;;5036324;28;20029;-68
2020/12/01 04:37:46;;;;;;;22.83;12.77;;;6.20;99.50;;;;;;5034899;28;20044;-69
2020/12/01 04:40:25;;;;;;;21.17;13.65;;;6.10;99.40;;;;;;5035069;28;20373;-68
2020/12/01 04:43:10;;;;;;;23.98;13.10;;;6.20;99.50;;;;;;5035038;28;20037;-68
2020/12/01 04:45:37;;;;;;;22.85;13.50;;;6.20;99.40;;;;;;5034811;28;20494;-67
2020/12/01 04:48:11;;;;;;;23.70;12.95;;;6.20;99.50;;;;;;5034588;28;20033;-68
2020/12/01 04:50:40;;;;;;;25.40;13.48;;;6.20;99.50;;;;;;5034670;28;20285;-68
2020/12/01 04:53:24;;;;;;;24.38;13.55;;;6.10;99.60;;;;;;5034949;28;20102;-69
2020/12/01 04:56:28;;;;;;;22.17;13.40;;;6.10;99.50;;;;;;5033573;28;20128;-69
2020/12/01 04:59:11;;;;;;;22.65;12.88;;;6.10;99.60;;;;;;4973955;28;20516;-69
2020/12/01 05:02:15;;;;;;;22.17;12.52;;;6.00;99.70;;;;;;4973311;28;20078;-69
2020/12/01 05:05:03;;;;;;;21.08;12.30;;;6.10;99.70;;;;;;5002475;28;20362;-68
2020/12/01 05:07:56;;;;;;;20.33;12.05;;;6.10;99.60;;;;;;5034306;28;20034;-68
2020/12/01 05:10:22;;;;;;;21.48;11.90;;;6.10;99.60;;;;;;5034246;28;20069;-68
2020/12/01 05:12:58;;;;;;;19.48;12.38;;;6.10;99.60;;;;;;5034131;28;20421;-69
2020/12/01 05:15:32;;;;;;;22.58;11.75;;;6.00;99.60;;;;;;5034089;28;20117;-69
2020/12/01 05:18:29;;;;;;;23.08;12.57;;;6.00;99.70;;;;;;5033170;28;20076;-68
2020/12/01 05:21:04;;;;;;;20.17;12.02;;;6.20;99.70;;;;;;5033942;28;20046;-69
2020/12/01 05:23:37;;;;;;;21.10;12.27;;;6.10;99.70;;;;;;5035598;28;20039;-69
2020/12/01 05:26:06;;;;;;;22.35;12.75;;;6.20;99.70;;;;;;5034406;28;20125;-67
2020/12/01 05:28:48;;;;;;;19.23;11.40;;;6.20;99.60;;;;;;5034074;28;20034;-68
2020/12/01 05:31:16;;;;;;;20.52;11.45;;;6.20;99.70;;;;;;5034045;28;20121;-68
2020/12/01 05:33:42;;;;;;;23.75;12.73;;;6.10;99.70;;;;;;5034000;28;20033;-67
2020/12/01 05:36:29;;;;;;;20.35;11.77;;;6.20;99.60;;;;;;5033816;28;20041;-68
2020/12/01 05:39:04;;;;;;;17.05;10.55;;;6.20;99.60;;;;;;5033741;28;20423;-69
2020/12/01 05:41:34;;;;;;;20.23;12.00;;;6.10;99.60;;;;;;5035252;28;20036;-68
2020/12/01 05:44:13;;;;;;;18.98;11.75;;;6.10;99.50;;;;;;5032801;28;20041;-70
2020/12/01 05:46:56;;;;;;;18.92;11.45;;;6.10;99.60;;;;;;5033538;28;20099;-68
2020/12/01 05:49:31;;;;;;;20.48;11.50;;;6.20;99.60;;;;;;5033536;28;20029;-67
2020/12/01 05:52:09;;;;;;;16.75;10.77;;;6.20;99.50;;;;;;5033341;28;20045;-70
2020/12/01 05:54:39;;;;;;;21.80;11.45;;;6.10;99.40;;;;;;5033323;28;20038;-69
2020/12/01 05:57:23;;;;;;;19.73;11.40;;;6.10;99.60;;;;;;5033297;28;20079;-69
2020/12/01 06:00:17;;;;;;;20.70;11.10;;;6.10;99.40;;;;;;5032308;28;20045;-68
2020/12/01 06:02:51;;;;;;;19.65;10.82;;;6.10;99.40;;;;;;5030141;28;20037;-71
2020/12/01 06:05:22;;;;;;;21.17;12.57;;;6.10;99.50;;;;;;5034866;28;20083;-70
2020/12/01 06:07:50;;;;;;;20.05;11.40;;;6.10;99.50;;;;;;5033165;28;20037;-69
2020/12/01 06:10:33;;;;;;;17.38;10.32;;;6.20;99.60;;;;;;5032042;28;20053;-68
2020/12/01 06:13:11;;;;;;;19.45;12.05;;;6.10;99.50;;;;;;5032104;28;20382;-68
2020/12/01 06:15:41;;;;;;;;;;;6.10;99.60;;;;;;5033590;28;20037;-67
2020/12/01 06:18:37;;;;;;;24.55;12.23;;;6.10;99.60;;;;;;5033122;28;19968;-69
2020/12/01 06:21:07;;;;;;;23.60;11.40;;;6.10;99.50;;;;;;5033094;28;20075;-68
2020/12/01 06:23:35;;;;;;;17.33;10.60;;;6.10;99.50;;;;;;5032824;28;20378;-67
2020/12/01 06:26:38;;;;;;;20.40;11.40;;;6.10;99.60;;;;;;5034508;28;20045;-68
2020/12/01 06:29:34;;;;;;;22.17;12.02;;;6.00;99.60;;;;;;5032950;28;20048;-68
2020/12/01 06:32:23;;;;;;;20.95;10.93;;;6.10;99.70;;;;;;5032972;28;20075;-69
2020/12/01 06:35:08;;;;;;;18.90;10.98;;;6.10;99.70;;;;;;5032620;28;20068;-69
2020/12/01 06:37:45;;;;;;;20.17;11.63;;;6.10;99.60;;;;;;5032429;28;20046;-69
2020/12/01 06:40:33;;;;;;;19.35;11.48;;;6.10;99.70;;;;;;5032569;28;20036;-68
2020/12/01 06:43:10;;;;;;;20.23;11.38;;;6.20;99.70;;;;;;5032348;28;20355;-68
2020/12/01 06:45:45;;;;;;;18.58;10.75;;;6.20;99.80;;;;;;5032347;28;20061;-68
2020/12/01 06:48:19;;;;;;;19.02;11.27;;;6.10;99.80;;;;;;5032315;28;20022;-69
2020/12/01 06:50:50;;;;;;;18.85;10.68;;;6.10;99.80;;;;;;5032346;28;20419;-68
2020/12/01 06:53:29;;;;;;;18.75;10.55;;;6.10;99.90;;;;;;5033619;28;20344;-68
2020/12/01 06:56:00;;;;;;;18.63;10.60;;;6.10;99.90;;;;;;5032093;28;20381;-70
2020/12/01 06:58:25;;;;;;;22.65;12.25;;;6.10;99.90;;;;;;5032176;28;20435;-70
2020/12/01 07:01:22;;;;;;;19.17;11.27;;;6.10;99.90;;;;;;5032046;28;20112;-70
2020/12/01 07:04:14;;;;;;;17.50;10.73;;;6.10;99.90;;;;;;5032057;28;20168;-69
2020/12/01 07:06:49;;;;;;;18.42;11.52;;;6.10;99.90;;;;;;5032129;28;20176;-69
2020/12/01 07:09:24;;;;;;;19.60;11.38;;;6.10;99.90;;;;;;5031951;28;20094;-69
2020/12/01 07:11:57;;;;;;;17.55;10.77;;;6.10;99.90;;;;;;5032052;28;20044;-69
2020/12/01 07:14:38;;;;;;;22.27;12.43;;;6.10;99.90;;;;;;5033244;28;20021;-69
2020/12/01 07:17:17;;;;;;;17.40;10.65;;;6.10;99.90;;;;;;5032450;28;20029;-70
2020/12/01 07:20:06;;;;;;;18.63;11.50;;;6.10;99.90;;;;;;5032051;28;20030;-70
2020/12/01 07:22:50;;;;;;;18.02;10.77;;;6.10;99.90;;;;;;5032011;28;20335;-69
2020/12/01 07:25:22;;;;;;;22.65;12.48;;;6.20;99.90;;;;;;5031381;28;20037;-70
2020/12/01 07:28:04;;;;;;;18.63;11.35;;;6.20;99.90;;;;;;5031764;28;20048;-69
2020/12/01 07:30:33;;;;;;;19.70;10.70;;;6.20;99.90;;;;;;5031830;28;20033;-70
2020/12/01 07:32:59;;;;;;;18.25;11.52;;;6.10;99.90;;;;;;5030488;28;20116;-70
2020/12/01 07:35:42;;;;;;;17.35;10.35;;;6.20;99.90;;;;;;5033121;28;20515;-70
2020/12/01 07:38:27;;;;;;;23.95;11.25;;;6.20;99.90;;;;;;5031734;28;20069;-69
2020/12/01 07:40:58;;;;;;;18.98;10.38;;;6.30;99.90;;;;;;5031702;28;20037;-69
2020/12/01 07:43:23;;;;;;;19.88;10.43;;;6.20;99.90;;;;;;5031401;28;20025;-69
2020/12/01 07:45:59;;;;;;;18.88;10.95;;;6.30;99.90;;;;;;5031623;28;20047;-70
2020/12/01 07:48:25;;;;;;;20.38;10.93;;;6.20;99.90;;;;;;5031276;28;20132;-69
2020/12/01 07:51:00;;;;;;;19.23;11.30;;;6.20;99.90;;;;;;5031358;28;20415;-69
2020/12/01 07:53:26;;;;;;;17.75;10.73;;;6.30;99.90;;;;;;5032700;28;20041;-70
2020/12/01 07:56:01;;;;;;;19.13;11.00;;;6.30;99.90;;;;;;5031551;28;20332;-70
2020/12/01 07:58:29;;;;;;;21.92;11.20;;;6.30;99.90;;;;;;5031186;28;20053;-70
2020/12/01 08:01:04;;;;;;;19.63;11.40;;;6.20;99.90;;;;;;5031362;28;20041;-70
2020/12/01 08:03:34;;;;;;;20.55;11.85;;;6.30;99.90;;;;;;5031226;28;20045;-69
2020/12/01 08:06:11;;;;;;;18.58;11.00;;;6.20;99.90;;;;;;5031484;28;20061;-70
2020/12/01 08:08:40;;;;;;;20.70;11.93;;;6.20;99.90;;;;;;5031410;28;20029;-70
2020/12/01 08:11:09;;;;;;;20.65;11.90;;;6.20;99.90;;;;;;5032742;28;20026;-70
2020/12/01 08:13:36;;;;;;;18.92;11.10;;;6.30;99.90;;;;;;5031211;28;20502;-70
2020/12/01 08:16:27;;;;;;;20.97;11.43;;;6.30;99.90;;;;;;5030898;28;20068;-69
2020/12/01 08:18:53;;;;;;;19.45;10.85;;;6.20;99.90;;;;;;5030782;28;20263;-69
2020/12/01 08:21:37;;;;;;;20.17;12.10;;;6.10;99.90;;;;;;5030525;28;20086;-69
2020/12/01 08:24:12;;;;;;;22.40;11.07;;;6.10;99.90;;;;;;5030685;28;20033;-68
2020/12/01 08:26:40;;;;;;;21.05;12.30;;;6.10;99.90;;;;;;5031195;28;20030;-76
2020/12/01 08:29:19;;;;;;;20.38;10.95;;;6.10;99.90;;;;;;5032497;28;20491;-70
2020/12/01 08:32:12;;;;;;;18.80;11.25;;;6.10;99.90;;;;;;5030643;28;20146;-69
2020/12/01 08:35:05;;;;;;;20.73;11.15;;;6.10;99.90;;;;;;5031091;28;20034;-68
2020/12/01 08:37:54;;;;;;;26.25;14.15;;;6.10;99.90;;;;;;5031973;28;20033;-72
2020/12/01 08:40:26;;;;;;;22.45;12.18;;;6.10;99.90;;;;;;5034872;28;20033;-71
2020/12/01 08:43:15;;;;;;;22.50;11.20;;;6.20;99.90;;;;;;5033375;28;20116;-73
2020/12/01 08:46:00;;;;;;;19.92;10.77;;;6.20;99.90;;;;;;5031638;28;20072;-71
2020/12/01 08:48:30;;;;;;;19.48;10.75;;;6.20;99.90;;;;;;5034495;28;20033;-72
2020/12/01 08:51:03;;;;;;;22.85;11.30;;;6.10;99.90;;;;;;5034451;28;20493;-77
2020/12/01 08:53:30;;;;;;;17.60;10.60;;;6.10;99.90;;;;;;5035850;28;20459;-75
2020/12/01 08:55:59;;;;;;;18.60;10.73;;;6.20;99.90;;;;;;5034381;28;20099;-77
2020/12/01 08:58:26;;;;;;;17.02;10.57;;;6.10;99.90;;;;;;5034609;28;20134;-75
2020/12/01 09:00:56;;;;;;;20.10;11.32;;;6.00;99.90;;;;;;5025204;28;20041;-76
2020/12/01 09:03:21;;;;;;;21.63;11.63;;;6.10;99.90;;;;;;5034414;28;20033;-73
2020/12/01 09:05:49;;;;;;;20.17;10.63;;;6.20;99.90;;;;;;5034263;28;20030;-73
2020/12/01 09:12:04;;;;;;;21.13;10.75;;;6.10;99.90;;;;;;5034350;28;20049;-71
2020/12/01 09:22:14;;;;;;;19.10;10.68;;;6.20;99.90;;;;;;5032526;28;20040;-72
2020/12/01 09:24:40;;;;;;;18.90;10.52;;;6.20;99.90;;;;;;5034017;28;20087;-74
2020/12/01 09:27:09;;;;;;;22.65;11.88;;;6.20;99.90;;;;;;5031471;28;20036;-73
2020/12/01 09:29:36;;;;;;;19.73;11.30;;;6.20;99.90;;;;;;5033905;28;20021;-74
2020/12/01 09:32:05;;;;;;;17.75;10.20;;;6.20;99.90;;;;;;5034203;28;20045;-72
2020/12/01 09:34:32;;;;;;;20.65;10.85;;;6.20;99.90;;;;;;5033673;28;20110;-71
2020/12/01 09:37:03;;;;;;;19.77;11.10;;;6.20;99.90;;;;;;5032513;28;20025;-71
2020/12/01 09:39:31;;;;;;;19.33;10.98;;;6.30;99.90;;;;;;5033942;28;20091;-71
2020/12/01 09:42:13;;;;;;;21.67;12.10;;;6.20;99.90;;;;;;5032835;28;20112;-81
2020/12/01 09:47:08;;;;;;;20.08;11.55;;;6.30;99.90;;;;;;5035412;28;20048;-75
2020/12/01 09:49:33;;;;;;;23.02;12.10;;;6.30;99.90;;;;;;5032828;28;20029;-74
2020/12/01 09:52:09;;;;;;;21.42;12.20;;;6.30;99.90;;;;;;5031955;28;20531;-71
2020/12/01 09:54:42;;;;;;;21.60;10.88;;;6.30;99.90;;;;;;5033423;28;20045;-72
2020/12/01 10:00:25;;;;;;;20.20;11.13;;;6.40;99.90;;;;;;5033467;28;20033;-70
2020/12/01 10:05:58;;;;;;;21.38;12.15;;;6.40;99.90;;;;;;5033962;28;20520;-71
2020/12/01 10:32:20;;;;;;;15.82;9.38;;;6.80;99.90;;;;;;5032894;28;20115;-73
2020/12/01 10:35:19;;;;;;;15.82;9.00;;;6.80;99.90;;;;;;5047753;28;20390;-74
2020/12/01 10:37:37;;;;;;;16.92;9.90;;;6.80;99.90;;;;;;5030311;28;20045;-72
2020/12/01 10:40:04;;;;;;;15.93;9.10;;;6.80;99.90;;;;;;5032548;28;20030;-70
2020/12/01 10:42:30;;;;;;;20.10;11.38;;;6.90;99.90;;;;;;5032133;28;20041;-77
2020/12/01 10:44:56;;;;;;;19.15;11.10;;;6.90;99.90;;;;;;5032399;28;20036;-74
2020/12/01 10:47:22;;;;;;;16.58;9.35;;;7.00;99.90;;;;;;5034055;28;20028;-73
2020/12/01 10:49:48;;;;;;;15.35;9.02;;;7.00;99.90;;;;;;5032319;28;20100;-72
2020/12/01 10:52:14;;;;;;;16.25;9.45;;;6.90;99.90;;;;;;5032195;28;20046;-71
2020/12/01 10:54:39;;;;;;;16.33;9.27;;;7.00;99.90;;;;;;5032159;28;20042;-71
2020/12/01 10:57:05;;;;;;;16.42;9.57;;;7.00;99.90;;;;;;5032162;28;20026;-71
2020/12/01 10:59:31;;;;;;;18.67;10.20;;;6.90;99.90;;;;;;5033413;28;20079;-72
2020/12/01 11:01:57;;;;;;;17.10;10.10;;;6.90;99.90;;;;;;5032233;28;20029;-70
2020/12/01 11:04:23;;;;;;;18.65;9.43;;;6.80;99.90;;;;;;5032204;28;20479;-70
2020/12/01 11:06:51;;;;;;;16.08;9.55;;;6.90;99.90;;;;;;5031974;28;20052;-71
2020/12/01 11:09:17;;;;;;;17.63;10.30;;;6.90;99.90;;;;;;5031919;28;20502;-70
2020/12/01 11:11:42;;;;;;;16.98;9.27;;;6.80;99.90;;;;;;5031833;28;20363;-71
2020/12/01 11:14:09;;;;;;;14.68;9.35;;;6.80;99.90;;;;;;5033517;28;20025;-72
2020/12/01 11:16:36;;;;;;;15.35;9.40;;;6.90;99.90;;;;;;5031098;28;20034;-71
2020/12/01 11:19:02;;;;;;;17.03;10.43;;;6.90;99.90;;;;;;5032233;28;20037;-70
2020/12/01 11:21:28;;;;;;;15.70;9.65;;;6.90;99.90;;;;;;5031738;28;20316;-71
2020/12/01 11:23:54;;;;;;;17.02;10.18;;;6.90;99.90;;;;;;5031521;28;20364;-71
2020/12/01 11:26:20;;;;;;;20.83;10.77;;;7.00;99.90;;;;;;5033272;28;20475;-71
2020/12/01 11:28:48;;;;;;;15.18;9.60;;;7.00;99.90;;;;;;5031812;28;20072;-70
2020/12/01 11:31:14;;;;;;;17.70;9.75;;;7.00;99.90;;;;;;5031903;28;20029;-71
2020/12/01 11:33:41;;;;;;;20.25;10.75;;;7.00;99.90;;;;;;5031559;28;20048;-70
2020/12/01 11:36:07;;;;;;;14.45;9.00;;;6.90;99.90;;;;;;5030645;28;20093;-72
2020/12/01 11:38:32;;;;;;;15.55;9.70;;;7.00;99.90;;;;;;5030620;28;20411;-69
2020/12/01 11:40:58;;;;;;;18.60;10.52;;;6.90;99.90;;;;;;5033160;28;20389;-70
2020/12/01 11:43:24;;;;;;;18.35;9.48;;;7.00;99.90;;;;;;5031530;28;20072;-71
2020/12/01 11:45:50;;;;;;;18.60;10.20;;;6.90;99.90;;;;;;5031647;28;20367;-71
2020/12/01 11:48:16;;;;;;;13.00;8.77;;;6.90;99.90;;;;;;5030657;28;20041;-71
2020/12/01 11:50:42;;;;;;;28.33;14.57;;;6.90;99.90;;;;;;5031655;28;20017;-70
2020/12/01 11:53:07;;;;;;;17.77;10.57;;;6.80;99.90;;;;;;5032920;28;20052;-70
2020/12/01 11:55:33;;;;;;;16.45;9.10;;;6.80;99.90;;;;;;5030631;28;20046;-70
2020/12/01 11:57:58;;;;;;;16.20;9.57;;;6.80;99.90;;;;;;5047121;28;20410;-71
2020/12/01 12:00:26;;;;;;;14.48;8.80;;;6.80;99.90;;;;;;5031630;28;20048;-70
2020/12/01 12:02:52;;;;;;;14.35;8.90;;;6.90;99.90;;;;;;5031331;28;20911;-70
2020/12/01 12:05:18;;;;;;;14.30;8.60;;;6.90;99.90;;;;;;5031759;28;20029;-71
2020/12/01 12:07:44;;;;;;;14.10;9.20;;;6.90;99.90;;;;;;5030303;28;20481;-70
2020/12/01 12:10:10;;;;;;;16.30;8.68;;;6.90;99.90;;;;;;5030198;28;20037;-72
2020/12/01 12:12:36;;;;;;;16.58;9.48;;;6.90;99.90;;;;;;5034126;28;20370;-72
2020/12/01 12:15:03;;;;;;;14.55;8.63;;;6.90;99.90;;;;;;5035244;28;20037;-70
2020/12/01 12:17:28;;;;;;;14.68;9.07;;;6.70;99.90;;;;;;5037036;28;20033;-70
2020/12/01 12:19:54;;;;;;;13.75;8.10;;;6.80;99.90;;;;;;5035062;28;20068;-72
2020/12/01 12:22:20;;;;;;;16.58;8.88;;;6.80;99.90;;;;;;5034173;28;20090;-70
2020/12/01 12:24:46;;;;;;;17.42;8.98;;;6.80;99.90;;;;;;5035246;28;20033;-71
2020/12/01 12:27:11;;;;;;;13.30;8.70;;;6.70;99.90;;;;;;5035014;28;20475;-71
2020/12/01 12:29:37;;;;;;;16.60;9.65;;;6.80;99.90;;;;;;5034695;28;20030;-72
2020/12/01 12:32:03;;;;;;;16.20;8.82;;;6.70;99.90;;;;;;5036506;28;20022;-70
2020/12/01 12:34:29;;;;;;;18.45;9.15;;;6.70;99.90;;;;;;5034542;28;20050;-70
2020/12/01 12:36:55;;;;;;;15.55;9.20;;;6.70;99.90;;;;;;5033895;28;20234;-69
2020/12/01 12:39:21;;;;;;;15.43;9.48;;;6.60;99.90;;;;;;5034984;28;20467;-69
2020/12/01 12:41:46;;;;;;;15.77;9.20;;;6.70;99.90;;;;;;5034635;28;20032;-70
2020/12/01 12:44:13;;;;;;;17.75;10.13;;;6.70;99.90;;;;;;5036207;28;20453;-69
2020/12/01 12:46:39;;;;;;;15.48;8.98;;;6.70;99.90;;;;;;5034521;28;20060;-71
2020/12/01 12:49:06;;;;;;;14.52;8.10;;;6.70;99.90;;;;;;5034372;28;20530;-71
2020/12/01 12:51:32;;;;;;;14.35;8.23;;;6.60;99.90;;;;;;5034408;28;20107;-70
2020/12/01 12:53:57;;;;;;;16.20;8.70;;;6.60;99.90;;;;;;5033473;28;20029;-68
2020/12/01 12:56:24;;;;;;;14.93;8.48;;;6.60;99.90;;;;;;5034978;28;20029;-73
2020/12/01 12:58:52;;;;;;;14.90;8.25;;;6.60;99.90;;;;;;5034427;28;20033;-69
2020/12/01 13:01:18;;;;;;;17.02;9.10;;;6.60;99.90;;;;;;5034171;28;20481;-69
2020/12/01 13:03:44;;;;;;;12.80;7.50;;;6.70;99.90;;;;;;5034488;28;20124;-70
2020/12/01 13:06:10;;;;;;;15.98;9.32;;;6.70;99.90;;;;;;5034445;28;20117;-67
2020/12/01 13:08:36;;;;;;;15.40;9.32;;;6.80;99.90;;;;;;5034285;28;20021;-68
2020/12/01 13:11:01;;;;;;;14.93;8.57;;;6.90;99.90;;;;;;5035545;28;20029;-69
2020/12/01 13:13:27;;;;;;;13.02;7.85;;;7.00;99.90;;;;;;5034062;28;20025;-71
2020/12/01 13:15:53;;;;;;;15.68;9.40;;;6.90;99.90;;;;;;5034243;28;20060;-70
2020/12/01 13:18:18;;;;;;;15.10;8.73;;;7.00;99.90;;;;;;5034010;28;20466;-72
2020/12/01 13:20:44;;;;;;;15.95;9.38;;;7.00;99.90;;;;;;5033244;28;20347;-69
2020/12/01 13:23:10;;;;;;;13.57;7.70;;;7.00;99.90;;;;;;5034761;28;20040;-70
2020/12/01 13:25:35;;;;;;;11.77;7.38;;;7.00;99.90;;;;;;5034047;28;20057;-72
2020/12/01 13:28:01;;;;;;;15.10;8.40;;;7.10;99.90;;;;;;5033734;28;20037;-70
2020/12/01 13:30:27;;;;;;;13.43;8.57;;;7.10;99.90;;;;;;5033714;28;20030;-69
2020/12/01 13:32:53;;;;;;;13.15;8.20;;;7.20;99.90;;;;;;5033775;28;20029;-70
2020/12/01 13:35:23;;;;;;;14.38;8.57;;;7.20;99.90;;;;;;5035074;28;20103;-70
2020/12/01 13:37:50;;;;;;;13.73;8.13;;;7.20;99.90;;;;;;5033791;28;20103;-69
2020/12/01 13:40:18;;;;;;;14.07;8.60;;;7.20;99.90;;;;;;5033619;28;20037;-71